createdAt,value
2023-04-19T00:00:14.766Z,100414.91
2023-04-19T00:02:42.935Z,100416.56
2023-04-19T00:05:12.222Z,100418.72
2023-04-19T00:07:39.144Z,100417.56
2023-04-19T00:10:07.300Z,100411.19
2023-04-19T00:12:34.058Z,100404.81
2023-04-19T00:15:00.983Z,100415.56
2023-04-19T00:17:28.086Z,100406.19
2023-04-19T00:19:54.849Z,100405.00
2023-04-19T00:22:21.912Z,100408.16
2023-04-19T00:24:48.684Z,100402.13
2023-04-19T00:27:15.471Z,100402.13
2023-04-19T00:29:42.229Z,100407.84
2023-04-19T00:32:09.777Z,100396.06
2023-04-19T00:34:37.074Z,100399.81
2023-04-19T00:37:07.103Z,100399.94
2023-04-19T00:39:33.926Z,100398.56
2023-04-19T00:42:01.528Z,100396.75
2023-04-19T00:44:28.467Z,100389.38
2023-04-19T00:46:57.244Z,100389.72
2023-04-19T00:49:25.031Z,100392.72
2023-04-19T00:51:54.834Z,100387.81
2023-04-19T00:54:22.003Z,100390.03
2023-04-19T00:56:48.755Z,100390.38
2023-04-19T00:59:16.727Z,100389.38
2023-04-19T01:01:43.504Z,100382.97
2023-04-19T01:04:10.627Z,100383.63
2023-04-19T01:06:40.528Z,100387.69
2023-04-19T01:09:07.315Z,100374.94
2023-04-19T01:11:34.576Z,100377.78
2023-04-19T01:14:10.412Z,100373.91
2023-04-19T01:16:37.226Z,100376.59
2023-04-19T01:19:04.080Z,100376.25
2023-04-19T01:21:32.877Z,100373.25
2023-04-19T01:23:59.764Z,100372.72
2023-04-19T01:26:26.609Z,100368.06
2023-04-19T01:28:53.673Z,100368.72
2023-04-19T01:31:20.557Z,100363.16
2023-04-19T01:33:47.628Z,100364.19
2023-04-19T01:36:14.482Z,100361.50
2023-04-19T01:38:41.256Z,100357.34
2023-04-19T01:41:08.246Z,100355.00
2023-04-19T01:43:35.069Z,100350.09
2023-04-19T01:46:02.291Z,100358.84
2023-04-19T01:48:29.165Z,100350.47
2023-04-19T01:50:56.024Z,100345.78
2023-04-19T01:53:22.860Z,100351.03
2023-04-19T01:55:50.018Z,100340.28
2023-04-19T01:58:16.750Z,100341.03
2023-04-19T02:00:43.717Z,100334.50
2023-04-19T02:03:10.674Z,100340.53
2023-04-19T02:05:40.289Z,100332.19
2023-04-19T02:08:07.024Z,100334.34
2023-04-19T02:10:33.841Z,100330.16
2023-04-19T02:13:00.706Z,100326.47
2023-04-19T02:15:27.525Z,100329.19
2023-04-19T02:17:54.432Z,100322.88
2023-04-19T02:20:21.321Z,100320.19
2023-04-19T02:22:48.344Z,100324.25
2023-04-19T02:25:16.850Z,100321.94
2023-04-19T02:27:43.659Z,100323.97
2023-04-19T02:30:11.804Z,100318.09
2023-04-19T02:32:39.084Z,100319.28
2023-04-19T02:35:06.697Z,100321.63
2023-04-19T02:37:33.419Z,100318.72
2023-04-19T02:40:00.191Z,100314.53
2023-04-19T02:42:26.980Z,100313.81
2023-04-19T02:44:53.731Z,100319.56
2023-04-19T02:47:21.216Z,100318.34
2023-04-19T02:49:48.131Z,100315.78
2023-04-19T02:52:14.940Z,100311.91
2023-04-19T02:54:41.695Z,100309.66
2023-04-19T02:57:08.469Z,100306.19
2023-04-19T02:59:35.303Z,100305.00
2023-04-19T03:02:02.250Z,100298.44
2023-04-19T03:04:29.335Z,100293.06
2023-04-19T03:06:56.167Z,100296.22
2023-04-19T03:09:22.916Z,100287.16
2023-04-19T03:11:49.666Z,100286.16
2023-04-19T03:14:16.677Z,100289.09
2023-04-19T03:16:43.688Z,100283.03
2023-04-19T03:19:10.765Z,100280.66
2023-04-19T03:21:37.573Z,100279.66
2023-04-19T03:24:04.446Z,100279.19
2023-04-19T03:26:31.711Z,100275.97
2023-04-19T03:28:58.549Z,100270.44
2023-04-19T03:31:25.465Z,100263.91
2023-04-19T03:33:52.394Z,100264.88
2023-04-19T03:36:19.246Z,100266.59
2023-04-19T03:38:46.226Z,100263.22
2023-04-19T03:41:24.273Z,100261.22
2023-04-19T03:43:51.113Z,100263.19
2023-04-19T03:46:18.081Z,100256.50
2023-04-19T03:48:44.943Z,100248.56
2023-04-19T03:51:16.273Z,100255.41
2023-04-19T03:53:43.067Z,100255.78
2023-04-19T03:56:10.105Z,100244.09
2023-04-19T03:58:37.751Z,100242.34
2023-04-19T04:01:04.607Z,100241.63
2023-04-19T04:03:31.714Z,100238.19
2023-04-19T04:05:59.282Z,100245.22
2023-04-19T04:08:26.172Z,100246.25
2023-04-19T04:10:55.011Z,100238.53
2023-04-19T04:13:21.791Z,100242.06
2023-04-19T04:15:48.946Z,100235.84
2023-04-19T04:18:16.542Z,100243.91
2023-04-19T04:20:44.423Z,100243.84
2023-04-19T04:23:11.286Z,100246.06
2023-04-19T04:25:39.441Z,100238.53
2023-04-19T04:28:07.173Z,100239.97
2023-04-19T04:30:36.418Z,100236.88
2023-04-19T04:33:03.469Z,100238.72
2023-04-19T04:35:31.186Z,100241.63
2023-04-19T04:37:58.167Z,100236.88
2023-04-19T04:40:25.007Z,100238.53
2023-04-19T04:42:53.235Z,100235.97
2023-04-19T04:45:20.259Z,100240.69
2023-04-19T04:47:47.282Z,100238.19
2023-04-19T04:50:14.548Z,100235.69
2023-04-19T04:52:41.556Z,100240.72
2023-04-19T04:55:09.030Z,100240.31
2023-04-19T04:57:35.857Z,100230.16
2023-04-19T05:00:03.016Z,100237.00
2023-04-19T05:02:29.920Z,100230.88
2023-04-19T05:04:57.122Z,100229.47
2023-04-19T05:07:24.011Z,100232.94
2023-04-19T05:09:50.875Z,100234.75
2023-04-19T05:12:17.779Z,100232.63
2023-04-19T05:14:44.530Z,100233.66
2023-04-19T05:17:11.273Z,100232.78
2023-04-19T05:19:38.303Z,100229.94
2023-04-19T05:22:05.453Z,100231.44
2023-04-19T05:24:32.225Z,100230.13
2023-04-19T05:27:02.299Z,100228.81
2023-04-19T05:29:29.083Z,100222.91
2023-04-19T05:31:56.093Z,100232.00
2023-04-19T05:34:23.095Z,100227.63
2023-04-19T05:36:50.141Z,100228.56
2023-04-19T05:39:17.635Z,100226.25
2023-04-19T05:41:46.875Z,100231.22
2023-04-19T05:44:14.233Z,100226.84
2023-04-19T05:46:41.291Z,100224.34
2023-04-19T05:49:08.098Z,100224.34
2023-04-19T05:51:35.048Z,100212.19
2023-04-19T05:54:01.992Z,100213.78
2023-04-19T05:56:28.925Z,100214.97
2023-04-19T05:58:56.568Z,100216.78
2023-04-19T06:01:24.590Z,100224.81
2023-04-19T06:03:53.847Z,100218.78
2023-04-19T06:06:23.063Z,100223.97
2023-04-19T06:08:51.544Z,100224.81
2023-04-19T06:11:26.544Z,100226.44
2023-04-19T06:13:55.933Z,100215.09
2023-04-19T06:16:22.819Z,100222.16
2023-04-19T06:18:49.568Z,100223.44
2023-04-19T06:21:16.450Z,100226.06
2023-04-19T06:23:43.185Z,100224.19
2023-04-19T06:26:09.939Z,100220.56
2023-04-19T06:28:36.668Z,100222.59
2023-04-19T06:31:03.697Z,100223.63
2023-04-19T06:33:30.554Z,100224.66
2023-04-19T06:35:57.279Z,100232.41
2023-04-19T06:38:24.053Z,100220.22
2023-04-19T06:40:50.758Z,100227.63
2023-04-19T06:43:17.554Z,100224.44
2023-04-19T06:45:44.353Z,100228.91
2023-04-19T06:48:11.265Z,100226.97
2023-04-19T06:50:38.049Z,100218.78
2023-04-19T06:53:05.129Z,100217.69
2023-04-19T06:55:31.940Z,100215.94
2023-04-19T06:57:58.771Z,100218.13
2023-04-19T07:00:25.599Z,100210.94
2023-04-19T07:02:52.682Z,100214.34
2023-04-19T07:05:19.725Z,100208.53
2023-04-19T07:07:46.505Z,100208.16
2023-04-19T07:10:13.246Z,100207.97
2023-04-19T07:12:40.110Z,100208.78
2023-04-19T07:15:07.469Z,100202.91
2023-04-19T07:17:36.248Z,100199.13
2023-04-19T07:20:05.057Z,100184.94
2023-04-19T07:22:31.877Z,100183.00
2023-04-19T07:24:58.847Z,100188.78
2023-04-19T07:27:25.996Z,100189.00
2023-04-19T07:29:53.521Z,100190.00
2023-04-19T07:32:21.144Z,100186.47
2023-04-19T07:34:52.021Z,100188.81
2023-04-19T07:37:18.822Z,100185.34
2023-04-19T07:39:45.958Z,100191.38
2023-04-19T07:42:12.690Z,100190.91
2023-04-19T07:44:39.437Z,100192.56
2023-04-19T07:47:06.453Z,100192.53
2023-04-19T07:49:34.561Z,100199.22
2023-04-19T07:52:02.138Z,100198.41
2023-04-19T07:54:29.231Z,100195.06
2023-04-19T07:56:57.813Z,100191.47
2023-04-19T07:59:24.755Z,100194.97
2023-04-19T08:01:51.622Z,100191.94
2023-04-19T08:04:21.073Z,100192.94
2023-04-19T08:06:48.358Z,100189.72
2023-04-19T08:09:15.166Z,100195.75
2023-04-19T08:11:43.364Z,100192.44
2023-04-19T08:14:18.684Z,100192.88
2023-04-19T08:17:22.245Z,100191.97
2023-04-19T08:19:43.898Z,100185.22
2023-04-19T08:22:10.933Z,100188.91
2023-04-19T08:24:37.669Z,100185.56
2023-04-19T08:27:04.478Z,100184.00
2023-04-19T08:29:31.307Z,100180.78
2023-04-19T08:31:58.128Z,100185.13
2023-04-19T08:34:24.987Z,100185.53
2023-04-19T08:37:03.379Z,100184.28
2023-04-19T08:39:33.677Z,100180.38
2023-04-19T08:42:12.550Z,100186.72
2023-04-19T08:45:05.611Z,100179.13
2023-04-19T08:47:34.870Z,100184.50
2023-04-19T08:50:17.543Z,100179.28
2023-04-19T08:52:58.655Z,100182.34
2023-04-19T08:55:28.700Z,100171.25
2023-04-19T08:57:57.264Z,100174.63
2023-04-19T09:00:24.351Z,100172.72
2023-04-19T09:02:53.675Z,100169.25
2023-04-19T09:05:21.155Z,100166.69
2023-04-19T09:07:48.597Z,100167.09
2023-04-19T09:10:17.584Z,100170.41
2023-04-19T09:13:01.270Z,100172.75
2023-04-19T09:15:42.156Z,100170.56
2023-04-19T09:18:10.408Z,100168.97
2023-04-19T09:20:42.088Z,100164.94
2023-04-19T09:23:12.834Z,100165.66
2023-04-19T09:26:05.909Z,100153.22
2023-04-19T09:28:28.907Z,100154.81
2023-04-19T09:31:06.712Z,100161.63
2023-04-19T09:33:42.421Z,100159.97
2023-04-19T09:36:09.652Z,100159.97
2023-04-19T09:38:49.532Z,100152.78
2023-04-19T09:41:20.184Z,100146.16
2023-04-19T09:44:05.401Z,100151.69
2023-04-19T09:46:36.723Z,100153.34
2023-04-19T09:49:27.246Z,100145.69
2023-04-19T09:51:57.986Z,100149.06
2023-04-19T09:54:28.899Z,100147.22
2023-04-19T09:56:57.892Z,100151.66
2023-04-19T09:59:25.901Z,100144.34
2023-04-19T10:01:56.737Z,100153.66
2023-04-19T10:04:29.385Z,100138.53
2023-04-19T10:07:29.296Z,100140.41
2023-04-19T10:10:05.059Z,100133.13
2023-04-19T10:13:07.008Z,100134.16
2023-04-19T10:15:33.853Z,100136.47
2023-04-19T10:18:10.740Z,100138.50
2023-04-19T10:20:49.919Z,100143.50
2023-04-19T10:23:17.914Z,100135.81
2023-04-19T10:25:48.520Z,100135.03
2023-04-19T10:28:18.518Z,100129.00
2023-04-19T10:30:56.557Z,100122.34
2023-04-19T10:33:28.165Z,100121.69
2023-04-19T10:36:02.232Z,100129.75
2023-04-19T10:38:43.561Z,100110.13
2023-04-19T10:41:17.377Z,100110.59
2023-04-19T10:44:11.708Z,100119.47
2023-04-19T10:46:40.906Z,100120.50
2023-04-19T10:49:09.967Z,100104.41
2023-04-19T10:51:43.544Z,100103.59
2023-04-19T10:54:31.824Z,100106.38
2023-04-19T10:57:02.430Z,100101.69
2023-04-19T10:59:37.183Z,100084.03
2023-04-19T11:02:26.543Z,100082.44
2023-04-19T11:04:53.445Z,100089.97
2023-04-19T11:07:21.566Z,100080.59
2023-04-19T11:09:49.997Z,100078.97
2023-04-19T11:12:18.522Z,100072.94
2023-04-19T11:14:48.365Z,100069.56
2023-04-19T11:17:28.280Z,100070.78
2023-04-19T11:19:57.241Z,100053.91
2023-04-19T11:22:34.616Z,100061.50
2023-04-19T11:25:21.340Z,100055.94
2023-04-19T11:27:51.423Z,100054.09
2023-04-19T11:30:21.756Z,100044.69
2023-04-19T11:32:56.965Z,100045.59
2023-04-19T11:35:26.471Z,100042.66
2023-04-19T11:37:54.226Z,100035.03
2023-04-19T11:40:22.790Z,100036.72
2023-04-19T11:42:57.788Z,100026.78
2023-04-19T11:45:39.145Z,100034.97
2023-04-19T11:48:16.558Z,100017.13
2023-04-19T11:50:44.752Z,100016.41
2023-04-19T11:53:17.148Z,100012.97
2023-04-19T11:55:49.177Z,100012.16
2023-04-19T11:58:51.644Z,100013.97
2023-04-19T12:01:21.173Z,100007.53
2023-04-19T12:03:55.893Z,100001.75
2023-04-19T12:06:27.166Z,100004.28
2023-04-19T12:08:55.785Z,100002.00
2023-04-19T12:11:27.172Z,99996.34
2023-04-19T12:14:14.930Z,100005.53
2023-04-19T12:16:42.505Z,99993.78
2023-04-19T12:19:18.340Z,100000.81
2023-04-19T12:21:46.916Z,100004.34
2023-04-19T12:24:16.229Z,99991.13
2023-04-19T12:26:57.264Z,99990.41
2023-04-19T12:29:24.529Z,99989.13
2023-04-19T12:31:51.911Z,99979.53
2023-04-19T12:34:18.882Z,99988.28
2023-04-19T12:36:46.162Z,99982.00
2023-04-19T12:39:14.253Z,99988.75
2023-04-19T12:41:41.269Z,99983.19
2023-04-19T12:44:08.030Z,99985.53
2023-04-19T12:46:34.867Z,99971.97
2023-04-19T12:49:01.659Z,99968.03
2023-04-19T12:51:28.586Z,99954.47
2023-04-19T12:53:55.753Z,99952.47
2023-04-19T12:56:22.625Z,99974.66
2023-04-19T12:58:49.495Z,99971.50
2023-04-19T13:01:16.729Z,99984.03
2023-04-19T13:03:43.683Z,99980.25
2023-04-19T13:06:13.764Z,99969.50
2023-04-19T13:08:45.517Z,99971.19
2023-04-19T13:11:14.590Z,99958.50
2023-04-19T13:13:41.425Z,99962.72
2023-04-19T13:16:08.427Z,99956.47
2023-04-19T13:18:35.671Z,99960.25
2023-04-19T13:21:05.538Z,99966.78
2023-04-19T13:23:34.159Z,99965.47
2023-04-19T13:26:01.404Z,99951.84
2023-04-19T13:28:28.140Z,99952.84
2023-04-19T13:30:55.021Z,99956.06
2023-04-19T13:33:21.922Z,99958.72
2023-04-19T13:35:48.697Z,99945.19
2023-04-19T13:38:18.318Z,99952.66
2023-04-19T13:40:45.567Z,99946.75
2023-04-19T13:43:12.349Z,99935.69
2023-04-19T13:45:39.061Z,99941.63
2023-04-19T13:48:06.488Z,99947.31
2023-04-19T13:50:33.427Z,99934.75
2023-04-19T13:53:00.475Z,99936.19
2023-04-19T13:55:27.646Z,99933.69
2023-04-19T13:57:54.476Z,99928.50
2023-04-19T14:00:21.774Z,99927.63
2023-04-19T14:02:50.775Z,99932.81
2023-04-19T14:05:18.979Z,99925.94
2023-04-19T14:07:45.768Z,99927.53
2023-04-19T14:10:12.635Z,99928.28
2023-04-19T14:12:39.470Z,99921.25
2023-04-19T14:15:06.638Z,99921.56
2023-04-19T14:17:33.536Z,99933.28
2023-04-19T14:20:00.356Z,99924.06
2023-04-19T14:22:27.101Z,99921.94
2023-04-19T14:24:53.866Z,99913.56
2023-04-19T14:27:21.319Z,99906.31
2023-04-19T14:29:48.206Z,99910.91
2023-04-19T14:34:45.319Z,99906.22
2023-04-19T14:37:12.538Z,99916.28
2023-04-19T14:39:39.294Z,99911.91
2023-04-19T14:42:06.736Z,99911.38
2023-04-19T14:44:35.204Z,99918.41
2023-04-19T14:47:02.652Z,99908.81
2023-04-19T14:49:29.728Z,99905.84
2023-04-19T14:51:56.469Z,99900.31
2023-04-19T14:54:23.281Z,99903.09
2023-04-19T14:56:50.363Z,99900.47
2023-04-19T14:59:17.389Z,99901.34
2023-04-19T15:01:44.413Z,99902.13
2023-04-19T15:04:11.447Z,99896.69
2023-04-19T15:06:38.492Z,99898.34
2023-04-19T15:09:05.578Z,99896.06
2023-04-19T15:11:32.640Z,99897.31
2023-04-19T15:13:59.379Z,99907.69
2023-04-19T15:16:26.304Z,99907.38
2023-04-19T15:18:53.068Z,99913.31
2023-04-19T15:21:23.635Z,99914.84
2023-04-19T15:23:51.385Z,99926.06
2023-04-19T15:26:18.193Z,99917.06
2023-04-19T15:28:45.040Z,99917.50
2023-04-19T15:31:12.000Z,99928.53
2023-04-19T15:33:39.320Z,99932.41
2023-04-19T15:36:06.540Z,99925.84
2023-04-19T15:38:33.699Z,99930.19
2023-04-19T15:41:01.862Z,99940.25
2023-04-19T15:43:28.657Z,99926.03
2023-04-19T15:45:55.806Z,99925.53
2023-04-19T15:48:22.656Z,99935.63
2023-04-19T15:50:49.567Z,99928.97
2023-04-19T15:53:16.648Z,99932.16
2023-04-19T15:55:43.514Z,99935.22
2023-04-19T15:58:10.407Z,99928.66
2023-04-19T16:00:37.254Z,99935.47
2023-04-19T16:03:04.619Z,99937.53
2023-04-19T16:05:31.979Z,99929.16
2023-04-19T16:08:07.026Z,99933.38
2023-04-19T16:10:34.429Z,99931.50
2023-04-19T16:13:01.618Z,99938.69
2023-04-19T16:15:29.060Z,99937.63
2023-04-19T16:17:55.943Z,99935.41
2023-04-19T16:20:23.173Z,99943.91
2023-04-19T16:22:50.129Z,99936.78
2023-04-19T16:25:17.269Z,99936.81
2023-04-19T16:27:46.512Z,99936.81
2023-04-19T16:30:14.676Z,99931.91
2023-04-19T16:32:42.384Z,99932.91
2023-04-19T16:35:15.767Z,99935.75
2023-04-19T16:37:45.552Z,99926.78
2023-04-19T16:40:14.076Z,99926.28
2023-04-19T16:42:41.068Z,99928.06
2023-04-19T16:45:09.337Z,99923.81
2023-04-19T16:47:36.937Z,99921.53
2023-04-19T16:50:04.974Z,99928.84
2023-04-19T16:52:33.206Z,99914.34
2023-04-19T16:55:00.399Z,99924.50
2023-04-19T16:57:27.434Z,99915.09
2023-04-19T16:59:54.589Z,99916.50
2023-04-19T17:02:21.547Z,99916.25
2023-04-19T17:04:50.320Z,99919.81
2023-04-19T17:07:17.340Z,99914.69
2023-04-19T17:09:44.145Z,99912.66
2023-04-19T17:12:11.120Z,99911.41
2023-04-19T17:14:40.147Z,99903.50
2023-04-19T17:17:07.423Z,99913.66
2023-04-19T17:19:34.322Z,99900.56
2023-04-19T17:22:05.781Z,99900.31
2023-04-19T17:24:33.922Z,99901.13
2023-04-19T17:27:01.276Z,99908.13
2023-04-19T17:29:28.267Z,99899.19
2023-04-19T17:31:56.330Z,99899.06
2023-04-19T17:34:23.352Z,99908.16
2023-04-19T17:36:50.332Z,99908.03
2023-04-19T17:39:18.753Z,99909.81
2023-04-19T17:41:45.985Z,99904.66
2023-04-19T17:44:12.915Z,99903.84
2023-04-19T17:46:40.776Z,99909.88
2023-04-19T17:49:09.324Z,99906.16
2023-04-19T17:51:36.164Z,99896.19
2023-04-19T17:54:03.353Z,99898.69
2023-04-19T17:56:30.318Z,99909.44
2023-04-19T17:59:00.944Z,99908.59
2023-04-19T18:01:27.810Z,99906.50
2023-04-19T18:03:54.715Z,99903.09
2023-04-19T18:06:22.221Z,99913.38
2023-04-19T18:08:49.019Z,99905.50
2023-04-19T18:11:18.374Z,99913.34
2023-04-19T18:13:45.568Z,99921.56
2023-04-19T18:16:17.473Z,99921.53
2023-04-19T18:18:44.225Z,99921.47
2023-04-19T18:21:11.007Z,99933.00
2023-04-19T18:23:39.675Z,99931.94
2023-04-19T18:26:06.775Z,99927.97
2023-04-19T18:28:35.837Z,99933.34
2023-04-19T18:31:02.832Z,99931.75
2023-04-19T18:33:29.714Z,99934.63
2023-04-19T18:35:56.719Z,99931.28
2023-04-19T18:38:23.991Z,99936.78
2023-04-19T18:40:50.862Z,99933.84
2023-04-19T18:43:17.680Z,99933.78
2023-04-19T18:45:44.576Z,99932.69
2023-04-19T18:48:11.512Z,99930.41
2023-04-19T18:50:38.686Z,99932.66
2023-04-19T18:53:05.670Z,99931.50
2023-04-19T18:55:33.423Z,99931.69
2023-04-19T18:58:01.283Z,99938.84
2023-04-19T19:00:28.385Z,99935.84
2023-04-19T19:02:55.787Z,99937.41
2023-04-19T19:05:22.850Z,99942.88
2023-04-19T19:07:49.963Z,99944.41
2023-04-19T19:10:20.973Z,99942.16
2023-04-19T19:12:49.788Z,99948.09
2023-04-19T19:15:17.063Z,99945.69
2023-04-19T19:17:49.461Z,99945.38
2023-04-19T19:20:17.665Z,99950.72
2023-04-19T19:22:45.912Z,99949.81
2023-04-19T19:25:13.441Z,99945.00
2023-04-19T19:27:40.657Z,99948.59
2023-04-19T19:30:08.607Z,99952.41
2023-04-19T19:32:35.582Z,99948.91
2023-04-19T19:35:06.360Z,99946.03
2023-04-19T19:37:35.865Z,99957.28
2023-04-19T19:40:05.233Z,99959.13
2023-04-19T19:42:41.993Z,99953.97
2023-04-19T19:45:09.595Z,99950.53
2023-04-19T19:47:43.393Z,99947.31
2023-04-19T19:51:01.012Z,99952.69
2023-04-19T19:53:01.833Z,99945.25
2023-04-19T19:55:29.160Z,99941.03
2023-04-19T20:02:56.946Z,99946.16
2023-04-19T20:05:24.615Z,99942.47
2023-04-19T20:10:25.036Z,99936.03
2023-04-19T20:12:52.316Z,99938.78
2023-04-19T20:15:19.072Z,99937.13
2023-04-19T20:17:46.113Z,99935.75
2023-04-19T20:20:13.174Z,99935.44
2023-04-19T20:22:40.760Z,99937.03
2023-04-19T20:25:12.540Z,99933.53
2023-04-19T20:27:39.465Z,99929.00
2023-04-19T20:30:08.465Z,99928.72
2023-04-19T20:32:36.769Z,99936.31
2023-04-19T20:35:09.614Z,99923.53
2023-04-19T20:37:40.327Z,99929.44
2023-04-19T20:40:11.308Z,99925.50
2023-04-19T20:42:38.526Z,99927.03
2023-04-19T20:45:07.108Z,99921.56
2023-04-19T20:47:34.067Z,99926.56
2023-04-19T20:50:00.822Z,99925.34
2023-04-19T20:52:27.973Z,99924.59
2023-04-19T20:54:56.560Z,99928.31
2023-04-19T20:57:23.424Z,99926.16
2023-04-19T20:59:51.193Z,99923.19
2023-04-19T21:02:18.291Z,99920.69
2023-04-19T21:04:45.151Z,99915.63
2023-04-19T21:07:11.877Z,99910.34
2023-04-19T21:09:39.435Z,99917.81
2023-04-19T21:12:06.317Z,99920.34
2023-04-19T21:14:34.205Z,99907.72
2023-04-19T21:17:03.086Z,99910.31
2023-04-19T21:19:30.825Z,99906.28
2023-04-19T21:21:58.849Z,99900.97
2023-04-19T21:24:25.650Z,99909.41
2023-04-19T21:26:52.444Z,99905.09
2023-04-19T21:29:20.052Z,99899.88
2023-04-19T21:31:47.385Z,99900.50
2023-04-19T21:34:14.246Z,99893.81
2023-04-19T21:36:41.121Z,99895.84
2023-04-19T21:39:08.530Z,99897.44
2023-04-19T21:41:36.229Z,99895.06
2023-04-19T21:44:03.123Z,99894.50
2023-04-19T21:46:30.024Z,99890.41
2023-04-19T21:48:56.892Z,99892.81
2023-04-19T21:51:23.909Z,99898.81
2023-04-19T21:53:50.775Z,99891.50
2023-04-19T21:56:20.450Z,99889.50
2023-04-19T21:58:47.641Z,99880.84
2023-04-19T22:01:14.455Z,99877.53
2023-04-19T22:03:41.429Z,99872.72
2023-04-19T22:06:08.758Z,99874.38
2023-04-19T22:08:38.770Z,99869.88
2023-04-19T22:11:06.242Z,99869.72
2023-04-19T22:13:33.731Z,99864.25
2023-04-19T22:16:02.588Z,99862.59
2023-04-19T22:18:29.498Z,99858.53
2023-04-19T22:20:56.356Z,99859.22
2023-04-19T22:23:23.263Z,99861.53
2023-04-19T22:25:50.249Z,99865.88
2023-04-19T22:28:17.161Z,99862.53
2023-04-19T22:30:44.007Z,99860.41
2023-04-19T22:33:11.033Z,99861.25
2023-04-19T22:35:37.849Z,99862.25
2023-04-19T22:38:04.627Z,99858.25
2023-04-19T22:40:31.340Z,99859.09
2023-04-19T22:42:58.287Z,99850.97
2023-04-19T22:45:25.072Z,99852.63
2023-04-19T22:47:51.910Z,99845.63
2023-04-19T22:50:19.013Z,99846.41
2023-04-19T22:52:45.916Z,99839.25
2023-04-19T22:55:12.864Z,99840.25
2023-04-19T22:57:39.706Z,99827.41
2023-04-19T23:00:10.853Z,99828.91
2023-04-19T23:02:38.796Z,99818.22
2023-04-19T23:05:06.782Z,99820.06
2023-04-19T23:07:33.924Z,99818.91
2023-04-19T23:10:01.274Z,99819.72
2023-04-19T23:12:31.236Z,99811.56
2023-04-19T23:14:58.716Z,99811.25
2023-04-19T23:17:25.798Z,99806.25
2023-04-19T23:19:52.593Z,99806.88
2023-04-19T23:22:19.404Z,99805.88
2023-04-19T23:24:46.159Z,99809.22
2023-04-19T23:27:13.050Z,99805.72
2023-04-19T23:29:40.070Z,99806.88
2023-04-19T23:32:06.848Z,99800.38
2023-04-19T23:34:33.712Z,99795.53
2023-04-19T23:37:00.566Z,99802.06
2023-04-19T23:39:27.600Z,99805.88
2023-04-19T23:41:54.439Z,99801.56
2023-04-19T23:44:21.735Z,99796.53
2023-04-19T23:46:48.938Z,99791.69
2023-04-19T23:49:16.058Z,99791.38
2023-04-19T23:51:43.497Z,99791.22
2023-04-19T23:54:10.345Z,99790.25
2023-04-19T23:56:37.112Z,99785.59
2023-04-19T23:59:03.918Z,99783.75
